Cushman, Montana
Current Conditions -  °F | °C
As of 1:55 AM on Saturday 22 Nov 2014 (Local Time) from KMVH Reporting Station
Overcast Overcast  
Wind Chill: 36°   Ceiling: 5500
Heat Index: 41°   Visibility: 10mi
Dew Point: 23°   Wind: 8mph
Humidity: 49%   Direction: 210°SSW
Pressure: 29.47"   Gusts: NA
Location:  46.4448°N, 109.102°W
Report Text: KMVH 220855Z AUTO 21007KT 10SM FEW043 BKN055 OVC075 05/M05 A2947 RMK A01
Loading
Personal Weather Stations






























Interactive Weather Map New forecast layout! Learn more

10-Day Weather Forecast

Advertisements
Track Severe Weather on mobile